LIRA/CIA METAR and TAF weather

Enter ICAO airport designator
Station Type Date Time Source
LIRA METAR 2018/12/10 08:20 UTC NOAA

LIRA 100820Z 01003KT CAVOK 09/07 Q1014


Station Type Date Time Source
LIRA Decoded METAR 2018/12/10 08:20 UTC NOAA

Roma / Ciampino, Italy (LIRA) 41-47N 012-35E 105M
Dec 10, 2018 - 03:20 AM EST / 2018.12.10 0820 UTC
Wind: from the N (010 degrees) at 3 MPH (3 KT):0
Visibility: greater than 7 mile(s):0
Temperature: 48 F (9 C)
Dew Point: 44 F (7 C)
Relative Humidity: 87%
Pressure (altimeter): 29.94 in. Hg (1014 hPa)
ob: LIRA 100820Z 01003KT CAVOK 09/07 Q1014
cycle: 8

Station Type Date Time Source
LIRA TAF 2018/12/10 06:21 UTC NOAA

TAF LIRA 100500Z 1006/1106 03008KT CAVOK


Example: see airport list